createdAt,value
2023-01-09T00:00:31.397Z,101127.07
2023-01-09T00:02:58.309Z,101119.90
2023-01-09T00:05:25.340Z,101116.33
2023-01-09T00:07:52.187Z,101112.62
2023-01-09T00:10:19.208Z,101111.77
2023-01-09T00:12:45.986Z,101111.92
2023-01-09T00:15:12.815Z,101107.02
2023-01-09T00:17:39.602Z,101112.36
2023-01-09T00:20:07.829Z,101111.16
2023-01-09T00:22:34.569Z,101116.03
2023-01-09T00:25:01.516Z,101113.40
2023-01-09T00:27:32.542Z,101114.73
2023-01-09T00:29:59.265Z,101110.75
2023-01-09T00:32:26.662Z,101104.92
2023-01-09T00:34:53.918Z,101104.23
2023-01-09T00:37:20.680Z,101105.16
2023-01-09T00:39:47.517Z,101099.39
2023-01-09T00:42:16.996Z,101091.45
2023-01-09T00:44:52.729Z,101081.62
2023-01-09T00:47:28.803Z,101073.66
2023-01-09T00:49:55.645Z,101078.60
2023-01-09T00:52:22.453Z,101079.61
2023-01-09T00:54:49.269Z,101077.75
2023-01-09T00:57:16.075Z,101070.27
2023-01-09T00:59:43.367Z,101074.80
2023-01-09T01:02:10.509Z,101066.19
2023-01-09T01:04:56.199Z,101067.60
2023-01-09T01:07:43.072Z,101055.80
2023-01-09T01:10:16.437Z,101049.61
2023-01-09T01:12:43.713Z,101046.82
2023-01-09T01:15:11.647Z,101054.38
2023-01-09T01:17:39.061Z,101056.47
2023-01-09T01:20:08.482Z,101047.50
2023-01-09T01:22:35.308Z,101040.02
2023-01-09T01:25:02.661Z,101037.77
2023-01-09T01:27:29.488Z,101026.87
2023-01-09T01:29:56.496Z,101027.55
2023-01-09T01:32:23.754Z,101023.73
2023-01-09T01:34:50.616Z,101017.55
2023-01-09T01:37:17.430Z,101012.77
2023-01-09T01:39:44.210Z,101007.80
2023-01-09T01:42:14.379Z,100997.98
2023-01-09T01:45:07.561Z,100994.05
2023-01-09T01:47:40.374Z,100995.13
2023-01-09T01:50:16.215Z,100995.51
2023-01-09T01:52:45.323Z,100998.00
2023-01-09T01:55:12.111Z,100998.04
2023-01-09T01:57:41.330Z,100994.55
2023-01-09T02:00:09.044Z,100991.42
2023-01-09T02:02:35.926Z,100997.08
2023-01-09T02:05:04.950Z,101000.34
2023-01-09T02:07:31.780Z,100993.60
2023-01-09T02:09:58.764Z,100987.21
2023-01-09T02:12:26.388Z,100983.49
2023-01-09T02:15:06.256Z,100984.92
2023-01-09T02:18:28.952Z,100981.41
2023-01-09T02:20:58.648Z,100973.90
2023-01-09T02:23:53.609Z,100975.67
2023-01-09T02:26:20.478Z,100974.46
2023-01-09T02:28:59.449Z,100965.66
2023-01-09T02:31:49.836Z,100963.69
2023-01-09T02:34:29.026Z,100957.60
2023-01-09T02:37:05.048Z,100955.77
2023-01-09T02:39:39.589Z,100952.65
2023-01-09T02:42:11.280Z,100945.81
2023-01-09T02:44:38.072Z,100938.86
2023-01-09T02:47:29.522Z,100938.66
2023-01-09T02:49:58.426Z,100935.00
2023-01-09T02:52:58.972Z,100931.20
2023-01-09T02:55:28.716Z,100917.81
2023-01-09T02:58:17.064Z,100916.92
2023-01-09T03:00:59.209Z,100921.04
2023-01-09T03:03:33.014Z,100933.61
2023-01-09T03:06:11.968Z,100920.63
2023-01-09T03:08:41.492Z,100921.77
2023-01-09T03:11:09.097Z,100922.66
2023-01-09T03:13:47.110Z,100922.11
2023-01-09T03:16:16.197Z,100920.63
2023-01-09T03:18:42.976Z,100925.05
2023-01-09T03:21:09.788Z,100921.02
2023-01-09T03:23:55.476Z,100919.37
2023-01-09T03:26:22.521Z,100914.64
2023-01-09T03:28:49.378Z,100914.69
2023-01-09T03:31:16.399Z,100909.38
2023-01-09T03:33:43.580Z,100908.52
2023-01-09T03:36:11.473Z,100915.45
2023-01-09T03:38:38.324Z,100908.22
2023-01-09T03:41:05.230Z,100908.17
2023-01-09T03:43:32.133Z,100901.83
2023-01-09T03:45:58.968Z,100901.44
2023-01-09T03:48:25.869Z,100901.80
2023-01-09T03:50:53.076Z,100896.88
2023-01-09T03:53:20.540Z,100889.42
2023-01-09T03:55:48.301Z,100891.89
2023-01-09T03:58:15.273Z,100885.28
2023-01-09T04:00:42.423Z,100888.13
2023-01-09T04:03:09.397Z,100882.77
2023-01-09T04:05:36.237Z,100881.09
2023-01-09T04:08:03.107Z,100883.37
2023-01-09T04:10:29.903Z,100883.67
2023-01-09T04:12:56.662Z,100887.69
2023-01-09T04:15:23.899Z,100885.63
2023-01-09T04:17:50.679Z,100886.48
2023-01-09T04:20:17.571Z,100880.77
2023-01-09T04:22:44.717Z,100877.81
2023-01-09T04:25:11.574Z,100874.85
2023-01-09T04:27:38.312Z,100871.53
2023-01-09T04:30:06.200Z,100870.99
2023-01-09T04:32:32.943Z,100868.34
2023-01-09T04:34:59.711Z,100865.15
2023-01-09T04:37:26.500Z,100868.37
2023-01-09T04:39:56.079Z,100864.00
2023-01-09T04:42:23.227Z,100855.64
2023-01-09T04:44:53.824Z,100851.45
2023-01-09T04:47:20.972Z,100846.09
2023-01-09T04:49:47.699Z,100844.50
2023-01-09T04:52:14.714Z,100844.14
2023-01-09T04:54:42.067Z,100847.86
2023-01-09T04:57:09.002Z,100847.70
2023-01-09T04:59:35.932Z,100843.52
2023-01-09T05:02:02.954Z,100841.79
2023-01-09T05:04:30.119Z,100836.25
2023-01-09T05:06:56.981Z,100840.73
2023-01-09T05:09:23.810Z,100844.73
2023-01-09T05:11:50.785Z,100847.83
2023-01-09T05:14:17.613Z,100850.66
2023-01-09T05:16:44.402Z,100851.02
2023-01-09T05:19:11.703Z,100846.67
2023-01-09T05:21:38.554Z,100848.95
2023-01-09T05:24:05.840Z,100847.91
2023-01-09T05:26:32.720Z,100847.02
2023-01-09T05:28:59.457Z,100852.08
2023-01-09T05:31:26.875Z,100852.05
2023-01-09T05:33:53.821Z,100848.92
2023-01-09T05:36:20.644Z,100845.08
2023-01-09T05:38:47.490Z,100846.84
2023-01-09T05:41:14.243Z,100835.41
2023-01-09T05:43:41.077Z,100829.02
2023-01-09T05:46:07.940Z,100828.06
2023-01-09T05:48:34.960Z,100833.21
2023-01-09T05:51:01.734Z,100827.99
2023-01-09T05:53:28.560Z,100823.38
2023-01-09T05:55:55.448Z,100828.27
2023-01-09T05:58:22.148Z,100829.62
2023-01-09T06:00:49.534Z,100829.09
2023-01-09T06:03:17.645Z,100822.36
2023-01-09T06:05:44.626Z,100826.27
2023-01-09T06:08:11.411Z,100830.39
2023-01-09T06:10:38.221Z,100830.20
2023-01-09T06:13:05.035Z,100831.90
2023-01-09T06:15:31.886Z,100827.63
2023-01-09T06:17:58.824Z,100824.98
2023-01-09T06:20:25.584Z,100821.78
2023-01-09T06:22:53.270Z,100821.50
2023-01-09T06:25:20.168Z,100823.85
2023-01-09T06:27:47.115Z,100819.84
2023-01-09T06:30:13.969Z,100817.29
2023-01-09T06:32:40.793Z,100816.40
2023-01-09T06:35:08.023Z,100810.73
2023-01-09T06:37:35.030Z,100805.42
2023-01-09T06:40:01.930Z,100811.95
2023-01-09T06:42:28.806Z,100808.42
2023-01-09T06:44:55.560Z,100812.66
2023-01-09T06:47:22.297Z,100806.60
2023-01-09T06:49:49.046Z,100808.92
2023-01-09T06:52:15.835Z,100808.55
2023-01-09T06:54:42.715Z,100810.44
2023-01-09T06:57:09.530Z,100803.64
2023-01-09T06:59:37.099Z,100800.27
2023-01-09T07:02:03.927Z,100802.00
2023-01-09T07:04:31.290Z,100794.13
2023-01-09T07:06:57.994Z,100791.80
2023-01-09T07:09:24.787Z,100796.60
2023-01-09T07:11:51.615Z,100795.64
2023-01-09T07:14:18.387Z,100788.55
2023-01-09T07:16:45.118Z,100787.48
2023-01-09T07:19:11.832Z,100795.16
2023-01-09T07:21:38.568Z,100793.84
2023-01-09T07:24:05.516Z,100789.90
2023-01-09T07:26:32.289Z,100790.79
2023-01-09T07:28:59.022Z,100786.10
2023-01-09T07:31:26.002Z,100790.54
2023-01-09T07:33:52.847Z,100785.18
2023-01-09T07:36:19.617Z,100789.42
2023-01-09T07:50:44.061Z,100797.90
2023-01-09T07:53:10.873Z,100802.61
2023-01-09T07:55:37.635Z,100799.79
2023-01-09T07:58:04.389Z,100797.01
2023-01-09T08:00:33.063Z,100797.08
2023-01-09T08:03:00.126Z,100791.41
2023-01-09T08:05:26.935Z,100790.56
2023-01-09T08:07:53.791Z,100781.86
2023-01-09T08:10:20.742Z,100778.32
2023-01-09T08:12:48.101Z,100774.14
2023-01-09T08:15:15.206Z,100771.89
2023-01-09T08:17:42.667Z,100777.05
2023-01-09T08:20:14.054Z,100780.78
2023-01-09T08:22:49.495Z,100779.70
2023-01-09T08:25:16.951Z,100773.27
2023-01-09T08:27:44.119Z,100777.71
2023-01-09T08:30:12.065Z,100774.59
2023-01-09T08:32:39.121Z,100771.51
2023-01-09T08:35:07.099Z,100778.02
2023-01-09T08:37:33.927Z,100769.68
2023-01-09T08:40:00.767Z,100770.09
2023-01-09T08:42:46.352Z,100765.32
2023-01-09T09:07:06.640Z,100733.86
2023-01-09T09:09:33.538Z,100729.25
2023-01-09T09:12:00.479Z,100723.93
2023-01-09T09:14:46.064Z,100720.89
2023-01-09T09:17:12.843Z,100721.14
2023-01-09T09:19:41.581Z,100721.58
2023-01-09T09:22:08.351Z,100710.99
2023-01-09T09:24:35.126Z,100706.95
2023-01-09T09:27:01.921Z,100709.45
2023-01-09T09:29:28.684Z,100716.23
2023-01-09T09:31:55.499Z,100713.23
2023-01-09T09:34:23.496Z,100710.16
2023-01-09T09:36:50.673Z,100710.27
2023-01-09T09:39:17.520Z,100710.23
2023-01-09T09:42:21.731Z,100710.55
2023-01-09T09:45:28.948Z,100706.05
2023-01-09T09:48:08.067Z,100703.00
2023-01-09T09:50:41.215Z,100694.14
2023-01-09T09:53:38.272Z,100687.59
2023-01-09T09:56:05.146Z,100688.58
2023-01-09T09:58:38.984Z,100684.96
2023-01-09T10:01:06.499Z,100689.17
2023-01-09T10:03:55.293Z,100691.56
2023-01-09T10:06:30.629Z,100686.48
2023-01-09T14:20:25.423Z,100634.43
2023-01-09T14:23:18.178Z,100629.86
2023-01-09T14:25:43.622Z,100629.44
2023-01-09T14:28:21.888Z,100627.65
2023-01-09T14:30:54.455Z,100620.06
2023-01-09T14:33:22.045Z,100622.10
2023-01-09T14:36:15.083Z,100620.92
2023-01-09T14:38:48.229Z,100617.67
2023-01-09T14:41:14.935Z,100620.30
2023-01-09T14:43:58.861Z,100620.83
2023-01-09T14:46:25.467Z,100621.55
2023-01-09T14:48:59.615Z,100625.89
2023-01-09T14:51:27.242Z,100623.11
2023-01-09T14:53:54.013Z,100626.23
2023-01-09T14:56:25.829Z,100626.41
2023-01-09T14:59:10.025Z,100636.14
2023-01-09T15:01:36.948Z,100639.77
2023-01-09T15:04:06.247Z,100639.26
2023-01-09T15:06:42.123Z,100640.82
2023-01-09T15:09:20.941Z,100636.29
2023-01-09T15:11:47.565Z,100639.79
2023-01-09T15:14:40.753Z,100636.81
2023-01-09T15:17:22.355Z,100638.20
2023-01-09T15:19:49.150Z,100638.52
2023-01-09T15:22:23.318Z,100639.75
2023-01-09T15:24:49.982Z,100635.92
2023-01-09T15:27:21.260Z,100626.30
2023-01-09T15:29:48.382Z,100625.08
2023-01-09T15:32:26.299Z,100629.31
2023-01-09T15:34:54.083Z,100635.75
2023-01-09T15:37:29.228Z,100624.78
2023-01-09T15:39:57.299Z,100623.00
2023-01-09T15:42:44.454Z,100619.08
2023-01-09T15:45:31.910Z,100618.77
2023-01-09T15:48:17.386Z,100614.92
2023-01-09T15:50:48.505Z,100609.13
2023-01-09T15:53:22.688Z,100614.17
2023-01-09T15:56:24.363Z,100610.50
2023-01-09T15:58:52.227Z,100611.21
2023-01-09T16:01:32.359Z,100610.47
2023-01-09T16:04:05.816Z,100609.52
2023-01-09T16:06:34.862Z,100607.02
2023-01-09T16:09:01.508Z,100602.20
2023-01-09T16:11:33.505Z,100614.27
2023-01-09T16:14:12.942Z,100612.39
2023-01-09T16:16:40.237Z,100615.72
2023-01-09T16:19:29.822Z,100617.16
2023-01-09T16:22:01.017Z,100614.66
2023-01-09T16:24:39.386Z,100611.63
2023-01-09T16:27:32.557Z,100609.10
2023-01-09T16:30:01.426Z,100607.61
2023-01-09T16:32:35.856Z,100605.89
2023-01-09T16:35:07.101Z,100605.36
2023-01-09T16:37:34.138Z,100605.09
2023-01-09T16:40:16.360Z,100605.26
2023-01-09T16:43:01.544Z,100602.33
2023-01-09T16:45:30.136Z,100602.25
2023-01-09T16:47:57.607Z,100603.23
2023-01-09T16:50:24.846Z,100601.59
2023-01-09T16:52:52.042Z,100603.02
2023-01-09T16:55:18.603Z,100607.46
2023-01-09T16:57:45.347Z,100609.84
2023-01-09T17:00:16.802Z,100614.77
2023-01-09T17:02:43.409Z,100617.02
2023-01-09T17:05:10.182Z,100618.45
2023-01-09T17:07:38.140Z,100611.71
2023-01-09T17:10:05.956Z,100607.52
2023-01-09T17:12:32.747Z,100609.64
2023-01-09T17:15:00.885Z,100613.90
2023-01-09T17:17:27.927Z,100615.46
2023-01-09T17:19:54.611Z,100610.69
2023-01-09T17:22:23.348Z,100606.67
2023-01-09T17:25:09.198Z,100614.23
2023-01-09T17:27:54.770Z,100610.23
2023-01-09T17:30:21.548Z,100609.60
2023-01-09T17:32:48.453Z,100618.13
2023-01-09T17:35:16.182Z,100617.27
2023-01-09T17:37:42.971Z,100613.41
2023-01-09T17:40:18.721Z,100617.48
2023-01-09T17:42:46.876Z,100616.71
2023-01-09T17:45:14.072Z,100617.88
2023-01-09T17:47:40.585Z,100619.54
2023-01-09T17:50:15.346Z,100620.35
2023-01-09T17:52:42.293Z,100618.60
2023-01-09T17:55:09.988Z,100619.64
2023-01-09T17:57:36.665Z,100611.83
2023-01-09T18:00:05.690Z,100608.30
2023-01-09T18:02:33.743Z,100618.04
2023-01-09T18:05:00.456Z,100618.61
2023-01-09T18:07:27.105Z,100604.77
2023-01-09T18:09:53.922Z,100599.23
2023-01-09T18:12:20.966Z,100604.98
2023-01-09T18:14:48.018Z,100597.64
2023-01-09T18:17:14.909Z,100605.71
2023-01-09T18:19:43.172Z,100617.13
2023-01-09T18:22:09.885Z,100606.91
2023-01-09T18:24:37.061Z,100603.20
2023-01-09T18:27:03.887Z,100605.39
2023-01-09T18:29:30.697Z,100601.48
2023-01-09T18:31:57.363Z,100603.86
2023-01-09T18:34:24.443Z,100610.45
2023-01-09T18:36:51.230Z,100606.13
2023-01-09T18:39:17.998Z,100606.27
2023-01-09T18:41:44.658Z,100595.04
2023-01-09T18:44:11.297Z,100597.70
2023-01-09T18:46:38.628Z,100595.52
2023-01-09T18:49:05.207Z,100595.83
2023-01-09T18:51:33.537Z,100595.80
2023-01-09T18:54:00.561Z,100601.54
2023-01-09T18:56:32.035Z,100597.94
2023-01-09T18:58:59.202Z,100599.23
2023-01-09T19:01:27.042Z,100590.65
2023-01-09T19:03:56.475Z,100583.66
2023-01-09T19:06:23.375Z,100579.58
2023-01-09T19:08:50.625Z,100589.06
2023-01-09T19:11:17.378Z,100586.92
2023-01-09T19:13:44.999Z,100588.79
2023-01-09T19:16:11.861Z,100596.02
2023-01-09T19:18:40.932Z,100590.30
2023-01-09T19:21:18.785Z,100587.73
2023-01-09T19:23:45.932Z,100589.98
2023-01-09T19:26:20.559Z,100590.77
2023-01-09T19:28:47.312Z,100593.03
2023-01-09T19:31:14.204Z,100594.73
2023-01-09T19:33:41.025Z,100596.54
2023-01-09T19:36:07.747Z,100602.67
2023-01-09T19:38:35.178Z,100599.08
2023-01-09T19:41:17.590Z,100601.96
2023-01-09T19:43:45.491Z,100604.05
2023-01-09T19:46:14.923Z,100609.66
2023-01-09T19:48:42.211Z,100612.14
2023-01-09T19:51:09.123Z,100603.99
2023-01-09T19:53:36.114Z,100614.91
2023-01-09T19:56:12.929Z,100618.82
2023-01-09T19:58:47.704Z,100616.48
2023-01-09T20:01:16.571Z,100613.85
2023-01-09T20:03:44.040Z,100611.98
2023-01-09T20:06:13.699Z,100612.63
2023-01-09T20:08:41.421Z,100615.29
2023-01-09T20:11:08.783Z,100616.77
2023-01-09T20:13:35.447Z,100616.00
2023-01-09T20:16:03.064Z,100623.91
2023-01-09T20:18:30.740Z,100616.42
2023-01-09T20:20:57.582Z,100620.59
2023-01-09T20:23:26.781Z,100616.31
2023-01-09T20:25:54.297Z,100624.05
2023-01-09T20:28:21.796Z,100623.23
2023-01-09T20:30:54.021Z,100618.97
2023-01-09T20:33:20.719Z,100622.39
2023-01-09T20:35:47.449Z,100623.39
2023-01-09T20:38:14.195Z,100620.27
2023-01-09T20:40:43.250Z,100624.33
2023-01-09T20:43:11.557Z,100621.07
2023-01-09T20:45:39.352Z,100628.52
2023-01-09T20:48:06.595Z,100635.02
2023-01-09T20:50:33.934Z,100626.90
2023-01-09T20:53:00.563Z,100628.21
2023-01-09T20:55:27.300Z,100630.73
2023-01-09T20:57:53.865Z,100633.05
2023-01-09T21:00:21.009Z,100630.35
2023-01-09T21:02:47.736Z,100629.79
2023-01-09T21:05:15.909Z,100631.48
2023-01-09T21:07:43.875Z,100629.57
2023-01-09T21:10:10.922Z,100635.81
2023-01-09T21:12:37.973Z,100638.80
2023-01-09T21:15:07.967Z,100650.20
2023-01-09T21:17:35.969Z,100646.33
2023-01-09T21:20:04.742Z,100651.95
2023-01-09T21:22:32.864Z,100641.73
2023-01-09T21:24:59.785Z,100646.95
2023-01-09T21:27:32.545Z,100641.85
2023-01-09T21:29:59.057Z,100641.97
2023-01-09T21:32:25.719Z,100652.85
2023-01-09T21:34:52.469Z,100656.81
2023-01-09T21:37:19.036Z,100659.30
2023-01-09T21:39:48.196Z,100660.20
2023-01-09T21:42:33.849Z,100670.09
2023-01-09T21:45:19.166Z,100662.05
2023-01-09T21:47:46.966Z,100660.73
2023-01-09T21:50:15.267Z,100666.84
2023-01-09T21:52:42.748Z,100667.95
2023-01-09T21:55:09.295Z,100667.86
2023-01-09T21:57:35.899Z,100663.45
2023-01-09T22:00:02.979Z,100655.42
2023-01-09T22:02:40.378Z,100660.94
2023-01-09T22:05:09.250Z,100662.50
2023-01-09T22:07:36.803Z,100666.90
2023-01-09T22:10:04.570Z,100663.95
2023-01-09T22:12:31.371Z,100661.46
2023-01-09T22:14:58.520Z,100663.63
2023-01-09T22:17:25.196Z,100666.30
2023-01-09T22:19:52.078Z,100662.61
2023-01-09T22:22:18.763Z,100667.91
2023-01-09T22:24:45.620Z,100668.94
2023-01-09T22:27:12.380Z,100669.89
2023-01-09T22:29:39.520Z,100676.78
2023-01-09T22:32:09.773Z,100679.92
2023-01-09T22:34:36.999Z,100672.00
2023-01-09T22:37:03.665Z,100668.85
2023-01-09T22:39:30.480Z,100666.79
2023-01-09T22:41:58.515Z,100666.48
2023-01-09T22:44:25.305Z,100671.28
2023-01-09T22:46:51.969Z,100673.13
2023-01-09T22:49:18.985Z,100671.61
2023-01-09T22:51:45.578Z,100674.06
2023-01-09T22:54:12.164Z,100670.87
2023-01-09T22:56:40.428Z,100671.31
2023-01-09T22:59:07.370Z,100672.48
2023-01-09T23:01:33.980Z,100676.30
2023-01-09T23:04:02.042Z,100669.38
2023-01-09T23:06:28.748Z,100670.45
2023-01-09T23:08:55.558Z,100670.64
2023-01-09T23:11:45.844Z,100675.80
2023-01-09T23:14:12.786Z,100677.65
2023-01-09T23:16:39.910Z,100682.02
2023-01-09T23:19:08.228Z,100680.58
2023-01-09T23:21:35.815Z,100682.60
2023-01-09T23:24:03.342Z,100685.40
2023-01-09T23:26:30.180Z,100684.73
2023-01-09T23:28:56.785Z,100683.85
2023-01-09T23:31:23.891Z,100676.69
2023-01-09T23:33:50.588Z,100670.81
2023-01-09T23:36:21.803Z,100676.35
2023-01-09T23:38:48.911Z,100675.76
2023-01-09T23:41:15.567Z,100671.81
2023-01-09T23:43:42.596Z,100669.81
2023-01-09T23:46:11.668Z,100671.17
2023-01-09T23:48:38.332Z,100672.00
2023-01-09T23:51:05.593Z,100671.17
2023-01-09T23:53:32.424Z,100677.29
2023-01-09T23:55:59.368Z,100679.75
2023-01-09T23:58:30.371Z,100680.45
